Anderson, Ohio
Current Conditions -  °F | °C
As of 3:04 AM on Tuesday 27 Jan 2015 (Local Time) from KLUK Reporting Station
Overcast Overcast  
Wind Chill: 13°   Ceiling: 2700
Heat Index: 21°   Visibility: 9mi
Dew Point: 15°   Wind: 6mph
Humidity: 78%   Direction: 40°NE
Pressure: 29.96"   Gusts: NA
Location:  39.0659°N, 84.278°W
Report Text: KLUK 270804Z AUTO 04005KT 9SM BKN027 OVC060 M06/M09 A2996 RMK AO2 T10611094
Loading
Personal Weather Stations






























Interactive Weather Map New forecast layout! Learn more

10-Day Weather Forecast

Advertisements
Track Severe Weather on mobile